sensor_id;sensor_type;location;lat;lon;timestamp;P1;durP1;ratioP1;P2;durP2;ratioP2
60076;SDS011;45950;45.208;20.374;2024-01-11T00:01:15;77.00;;;26.77;;
60076;SDS011;45950;45.208;20.374;2024-01-11T00:03:42;135.97;;;26.20;;
60076;SDS011;45950;45.208;20.374;2024-01-11T00:06:08;97.57;;;27.17;;
60076;SDS011;45950;45.208;20.374;2024-01-11T00:08:35;83.60;;;30.23;;
60076;SDS011;45950;45.208;20.374;2024-01-11T00:11:03;154.50;;;27.47;;
60076;SDS011;45950;45.208;20.374;2024-01-11T00:16:19;155.57;;;27.23;;
60076;SDS011;45950;45.208;20.374;2024-01-11T00:18:45;58.87;;;19.77;;
60076;SDS011;45950;45.208;20.374;2024-01-11T00:21:15;122.00;;;23.83;;
60076;SDS011;45950;45.208;20.374;2024-01-11T00:23:42;187.57;;;42.77;;
60076;SDS011;45950;45.208;20.374;2024-01-11T00:26:10;131.47;;;28.57;;
60076;SDS011;45950;45.208;20.374;2024-01-11T00:28:38;194.03;;;34.77;;
60076;SDS011;45950;45.208;20.374;2024-01-11T00:31:04;200.37;;;45.03;;
60076;SDS011;45950;45.208;20.374;2024-01-11T00:33:31;129.23;;;36.63;;
60076;SDS011;45950;45.208;20.374;2024-01-11T00:35:58;120.83;;;27.90;;
60076;SDS011;45950;45.208;20.374;2024-01-11T00:38:24;111.03;;;40.87;;
60076;SDS011;45950;45.208;20.374;2024-01-11T00:40:51;76.03;;;25.93;;
60076;SDS011;45950;45.208;20.374;2024-01-11T00:43:19;134.97;;;38.27;;
60076;SDS011;45950;45.208;20.374;2024-01-11T00:45:45;83.97;;;26.30;;
60076;SDS011;45950;45.208;20.374;2024-01-11T00:48:12;68.10;;;22.60;;
60076;SDS011;45950;45.208;20.374;2024-01-11T00:53:42;132.97;;;29.13;;
60076;SDS011;45950;45.208;20.374;2024-01-11T00:56:15;120.57;;;28.17;;
60076;SDS011;45950;45.208;20.374;2024-01-11T00:58:43;118.00;;;33.27;;
60076;SDS011;45950;45.208;20.374;2024-01-11T01:01:09;98.40;;;26.50;;
60076;SDS011;45950;45.208;20.374;2024-01-11T01:03:36;151.43;;;30.97;;
60076;SDS011;45950;45.208;20.374;2024-01-11T01:06:03;168.60;;;43.50;;
60076;SDS011;45950;45.208;20.374;2024-01-11T01:08:30;267.33;;;72.70;;
60076;SDS011;45950;45.208;20.374;2024-01-11T01:10:56;191.43;;;51.77;;
60076;SDS011;45950;45.208;20.374;2024-01-11T01:13:23;161.23;;;34.27;;
60076;SDS011;45950;45.208;20.374;2024-01-11T01:15:51;234.97;;;59.03;;
60076;SDS011;45950;45.208;20.374;2024-01-11T01:18:18;203.60;;;39.13;;
60076;SDS011;45950;45.208;20.374;2024-01-11T01:20:44;131.50;;;40.50;;
60076;SDS011;45950;45.208;20.374;2024-01-11T01:23:11;189.83;;;31.80;;
60076;SDS011;45950;45.208;20.374;2024-01-11T01:25:38;193.90;;;50.37;;
60076;SDS011;45950;45.208;20.374;2024-01-11T01:28:04;70.87;;;22.10;;
60076;SDS011;45950;45.208;20.374;2024-01-11T01:30:31;87.03;;;27.93;;
60076;SDS011;45950;45.208;20.374;2024-01-11T01:32:59;127.73;;;29.53;;
60076;SDS011;45950;45.208;20.374;2024-01-11T01:35:26;145.13;;;31.77;;
60076;SDS011;45950;45.208;20.374;2024-01-11T01:37:52;126.80;;;29.53;;
60076;SDS011;45950;45.208;20.374;2024-01-11T01:40:19;101.33;;;26.90;;
60076;SDS011;45950;45.208;20.374;2024-01-11T01:42:46;114.97;;;29.77;;
60076;SDS011;45950;45.208;20.374;2024-01-11T01:48:16;74.03;;;25.50;;
60076;SDS011;45950;45.208;20.374;2024-01-11T01:50:43;149.70;;;31.07;;
60076;SDS011;45950;45.208;20.374;2024-01-11T01:53:15;206.13;;;41.40;;
60076;SDS011;45950;45.208;20.374;2024-01-11T01:55:42;105.23;;;28.50;;
60076;SDS011;45950;45.208;20.374;2024-01-11T01:58:08;102.70;;;31.00;;
60076;SDS011;45950;45.208;20.374;2024-01-11T02:00:35;155.50;;;34.93;;
60076;SDS011;45950;45.208;20.374;2024-01-11T02:03:02;100.20;;;32.93;;
60076;SDS011;45950;45.208;20.374;2024-01-11T02:05:30;252.23;;;41.23;;
60076;SDS011;45950;45.208;20.374;2024-01-11T02:07:57;213.83;;;37.30;;
60076;SDS011;45950;45.208;20.374;2024-01-11T02:10:25;73.00;;;24.50;;
60076;SDS011;45950;45.208;20.374;2024-01-11T02:12:52;97.30;;;22.67;;
60076;SDS011;45950;45.208;20.374;2024-01-11T02:15:18;126.07;;;26.60;;
60076;SDS011;45950;45.208;20.374;2024-01-11T02:17:45;49.13;;;18.13;;
60076;SDS011;45950;45.208;20.374;2024-01-11T02:20:10;159.10;;;32.77;;
60076;SDS011;45950;45.208;20.374;2024-01-11T02:22:40;92.17;;;22.87;;
60076;SDS011;45950;45.208;20.374;2024-01-11T02:25:09;94.43;;;23.80;;
60076;SDS011;45950;45.208;20.374;2024-01-11T02:27:44;66.37;;;22.40;;
60076;SDS011;45950;45.208;20.374;2024-01-11T02:30:11;71.23;;;24.70;;
60076;SDS011;45950;45.208;20.374;2024-01-11T02:32:38;105.93;;;23.50;;
60076;SDS011;45950;45.208;20.374;2024-01-11T02:35:04;100.30;;;23.83;;
60076;SDS011;45950;45.208;20.374;2024-01-11T02:37:31;124.93;;;28.47;;
60076;SDS011;45950;45.208;20.374;2024-01-11T02:39:58;99.23;;;26.33;;
60076;SDS011;45950;45.208;20.374;2024-01-11T02:42:26;79.10;;;24.47;;
60076;SDS011;45950;45.208;20.374;2024-01-11T02:44:53;163.20;;;26.47;;
60076;SDS011;45950;45.208;20.374;2024-01-11T02:47:19;83.77;;;25.03;;
60076;SDS011;45950;45.208;20.374;2024-01-11T02:52:49;57.40;;;22.23;;
60076;SDS011;45950;45.208;20.374;2024-01-11T02:55:15;54.50;;;21.97;;
60076;SDS011;45950;45.208;20.374;2024-01-11T02:57:43;58.50;;;24.17;;
60076;SDS011;45950;45.208;20.374;2024-01-11T03:00:11;72.77;;;23.00;;
60076;SDS011;45950;45.208;20.374;2024-01-11T03:02:38;81.00;;;23.20;;
60076;SDS011;45950;45.208;20.374;2024-01-11T03:05:04;188.97;;;32.20;;
60076;SDS011;45950;45.208;20.374;2024-01-11T03:07:31;169.40;;;71.20;;
60076;SDS011;45950;45.208;20.374;2024-01-11T03:09:58;119.87;;;48.63;;
60076;SDS011;45950;45.208;20.374;2024-01-11T03:12:24;117.60;;;38.07;;
60076;SDS011;45950;45.208;20.374;2024-01-11T03:14:53;117.17;;;31.63;;
60076;SDS011;45950;45.208;20.374;2024-01-11T03:17:20;156.20;;;44.90;;
60076;SDS011;45950;45.208;20.374;2024-01-11T03:20:02;147.83;;;35.93;;
60076;SDS011;45950;45.208;20.374;2024-01-11T03:22:30;196.25;;;40.97;;
60076;SDS011;45950;45.208;20.374;2024-01-11T03:24:57;265.73;;;40.90;;
60076;SDS011;45950;45.208;20.374;2024-01-11T03:30:28;137.70;;;34.40;;
60076;SDS011;45950;45.208;20.374;2024-01-11T03:32:54;186.97;;;39.07;;
60076;SDS011;45950;45.208;20.374;2024-01-11T03:35:21;276.43;;;49.03;;
60076;SDS011;45950;45.208;20.374;2024-01-11T03:37:48;116.90;;;37.50;;
60076;SDS011;45950;45.208;20.374;2024-01-11T03:40:14;98.10;;;30.23;;
60076;SDS011;45950;45.208;20.374;2024-01-11T03:42:41;154.33;;;40.60;;
60076;SDS011;45950;45.208;20.374;2024-01-11T03:45:08;118.33;;;34.90;;
60076;SDS011;45950;45.208;20.374;2024-01-11T03:47:36;232.90;;;42.73;;
60076;SDS011;45950;45.208;20.374;2024-01-11T03:50:03;118.50;;;32.17;;
60076;SDS011;45950;45.208;20.374;2024-01-11T03:52:30;167.47;;;37.10;;
60076;SDS011;45950;45.208;20.374;2024-01-11T03:54:56;87.87;;;30.83;;
60076;SDS011;45950;45.208;20.374;2024-01-11T03:57:23;72.67;;;26.07;;
60076;SDS011;45950;45.208;20.374;2024-01-11T03:59:50;171.23;;;35.40;;
60076;SDS011;45950;45.208;20.374;2024-01-11T04:02:16;115.17;;;28.30;;
60076;SDS011;45950;45.208;20.374;2024-01-11T04:07:31;161.80;;;49.50;;
60076;SDS011;45950;45.208;20.374;2024-01-11T04:09:58;86.53;;;28.80;;
60076;SDS011;45950;45.208;20.374;2024-01-11T04:12:25;123.20;;;35.23;;
60076;SDS011;45950;45.208;20.374;2024-01-11T04:14:52;128.67;;;34.10;;
60076;SDS011;45950;45.208;20.374;2024-01-11T04:17:18;153.90;;;35.03;;
60076;SDS011;45950;45.208;20.374;2024-01-11T04:19:45;135.37;;;40.40;;
60076;SDS011;45950;45.208;20.374;2024-01-11T04:22:11;124.70;;;36.07;;
60076;SDS011;45950;45.208;20.374;2024-01-11T04:24:40;133.33;;;34.70;;
60076;SDS011;45950;45.208;20.374;2024-01-11T04:27:07;150.30;;;38.60;;
60076;SDS011;45950;45.208;20.374;2024-01-11T04:29:33;111.10;;;32.50;;
60076;SDS011;45950;45.208;20.374;2024-01-11T04:32:00;122.80;;;33.13;;
60076;SDS011;45950;45.208;20.374;2024-01-11T04:34:39;68.60;;;24.13;;
60076;SDS011;45950;45.208;20.374;2024-01-11T04:37:06;96.67;;;29.47;;
60076;SDS011;45950;45.208;20.374;2024-01-11T04:39:33;97.50;;;29.03;;
60076;SDS011;45950;45.208;20.374;2024-01-11T04:44:56;126.83;;;34.40;;
60076;SDS011;45950;45.208;20.374;2024-01-11T04:47:22;105.23;;;34.10;;
60076;SDS011;45950;45.208;20.374;2024-01-11T04:49:49;129.33;;;40.50;;
60076;SDS011;45950;45.208;20.374;2024-01-11T04:52:16;144.87;;;36.97;;
60076;SDS011;45950;45.208;20.374;2024-01-11T04:54:42;130.03;;;35.03;;
60076;SDS011;45950;45.208;20.374;2024-01-11T04:57:17;139.13;;;40.40;;
60076;SDS011;45950;45.208;20.374;2024-01-11T04:59:44;170.97;;;40.97;;
60076;SDS011;45950;45.208;20.374;2024-01-11T05:02:12;144.10;;;39.03;;
60076;SDS011;45950;45.208;20.374;2024-01-11T05:04:38;122.63;;;39.73;;
60076;SDS011;45950;45.208;20.374;2024-01-11T05:07:05;118.40;;;37.60;;
60076;SDS011;45950;45.208;20.374;2024-01-11T05:09:31;120.90;;;33.17;;
60076;SDS011;45950;45.208;20.374;2024-01-11T05:11:58;146.63;;;40.93;;
60076;SDS011;45950;45.208;20.374;2024-01-11T05:14:25;116.60;;;37.27;;
60076;SDS011;45950;45.208;20.374;2024-01-11T05:16:51;119.77;;;35.17;;
60076;SDS011;45950;45.208;20.374;2024-01-11T05:22:16;91.70;;;32.57;;
60076;SDS011;45950;45.208;20.374;2024-01-11T05:24:43;111.37;;;35.93;;
60076;SDS011;45950;45.208;20.374;2024-01-11T05:27:09;124.50;;;40.77;;
60076;SDS011;45950;45.208;20.374;2024-01-11T05:29:36;126.10;;;38.60;;
60076;SDS011;45950;45.208;20.374;2024-01-11T05:32:03;126.37;;;44.30;;
60076;SDS011;45950;45.208;20.374;2024-01-11T05:34:34;128.90;;;46.17;;
60076;SDS011;45950;45.208;20.374;2024-01-11T05:37:01;108.60;;;40.93;;
60076;SDS011;45950;45.208;20.374;2024-01-11T05:39:29;104.73;;;37.07;;
60076;SDS011;45950;45.208;20.374;2024-01-11T05:41:55;102.73;;;37.10;;
60076;SDS011;45950;45.208;20.374;2024-01-11T05:44:22;99.20;;;30.37;;
60076;SDS011;45950;45.208;20.374;2024-01-11T05:46:49;102.73;;;36.47;;
60076;SDS011;45950;45.208;20.374;2024-01-11T05:49:15;102.93;;;32.93;;
60076;SDS011;45950;45.208;20.374;2024-01-11T05:51:42;98.80;;;34.90;;
60076;SDS011;45950;45.208;20.374;2024-01-11T05:54:09;89.60;;;30.20;;
60076;SDS011;45950;45.208;20.374;2024-01-11T05:56:37;95.93;;;32.00;;
60076;SDS011;45950;45.208;20.374;2024-01-11T05:59:03;110.73;;;33.27;;
60076;SDS011;45950;45.208;20.374;2024-01-11T06:01:30;139.97;;;36.57;;
60076;SDS011;45950;45.208;20.374;2024-01-11T06:03:57;124.17;;;36.50;;
60076;SDS011;45950;45.208;20.374;2024-01-11T06:06:24;110.43;;;31.43;;
60076;SDS011;45950;45.208;20.374;2024-01-11T06:08:50;114.87;;;34.63;;
60076;SDS011;45950;45.208;20.374;2024-01-11T06:11:17;103.40;;;33.30;;
60076;SDS011;45950;45.208;20.374;2024-01-11T06:13:46;82.03;;;28.27;;
60076;SDS011;45950;45.208;20.374;2024-01-11T06:16:12;104.70;;;36.70;;
60076;SDS011;45950;45.208;20.374;2024-01-11T06:18:44;115.30;;;39.73;;
60076;SDS011;45950;45.208;20.374;2024-01-11T06:21:11;122.50;;;38.07;;
60076;SDS011;45950;45.208;20.374;2024-01-11T06:23:38;122.80;;;35.37;;
60076;SDS011;45950;45.208;20.374;2024-01-11T06:26:20;118.13;;;33.03;;
60076;SDS011;45950;45.208;20.374;2024-01-11T06:28:49;95.18;;;30.20;;
60076;SDS011;45950;45.208;20.374;2024-01-11T06:31:16;115.10;;;39.07;;
60076;SDS011;45950;45.208;20.374;2024-01-11T06:33:43;138.03;;;37.20;;
60076;SDS011;45950;45.208;20.374;2024-01-11T06:36:10;147.43;;;36.53;;
60076;SDS011;45950;45.208;20.374;2024-01-11T06:38:36;100.17;;;35.27;;
60076;SDS011;45950;45.208;20.374;2024-01-11T06:41:03;92.30;;;31.27;;
60076;SDS011;45950;45.208;20.374;2024-01-11T06:43:30;102.20;;;33.53;;
60076;SDS011;45950;45.208;20.374;2024-01-11T06:45:58;126.50;;;40.73;;
60076;SDS011;45950;45.208;20.374;2024-01-11T06:48:28;134.73;;;40.17;;
60076;SDS011;45950;45.208;20.374;2024-01-11T06:50:55;94.50;;;33.00;;
60076;SDS011;45950;45.208;20.374;2024-01-11T06:53:21;117.13;;;39.10;;
60076;SDS011;45950;45.208;20.374;2024-01-11T06:55:48;84.13;;;33.23;;
60076;SDS011;45950;45.208;20.374;2024-01-11T06:58:15;107.03;;;37.10;;
60076;SDS011;45950;45.208;20.374;2024-01-11T07:00:42;123.70;;;48.73;;
60076;SDS011;45950;45.208;20.374;2024-01-11T07:03:10;95.27;;;35.90;;
60076;SDS011;45950;45.208;20.374;2024-01-11T07:05:37;102.70;;;35.50;;
60076;SDS011;45950;45.208;20.374;2024-01-11T07:08:04;93.57;;;33.77;;
60076;SDS011;45950;45.208;20.374;2024-01-11T07:10:30;93.73;;;32.23;;
60076;SDS011;45950;45.208;20.374;2024-01-11T07:12:57;88.23;;;32.27;;
60076;SDS011;45950;45.208;20.374;2024-01-11T07:15:24;95.40;;;34.17;;
60076;SDS011;45950;45.208;20.374;2024-01-11T07:17:50;103.73;;;36.30;;
60076;SDS011;45950;45.208;20.374;2024-01-11T07:20:19;94.90;;;36.13;;
60076;SDS011;45950;45.208;20.374;2024-01-11T07:22:46;66.30;;;28.00;;
60076;SDS011;45950;45.208;20.374;2024-01-11T07:25:13;84.83;;;31.50;;
60076;SDS011;45950;45.208;20.374;2024-01-11T07:27:40;88.00;;;30.67;;
60076;SDS011;45950;45.208;20.374;2024-01-11T07:30:07;105.80;;;36.90;;
60076;SDS011;45950;45.208;20.374;2024-01-11T07:32:33;90.70;;;32.30;;
60076;SDS011;45950;45.208;20.374;2024-01-11T07:35:00;64.80;;;28.00;;
60076;SDS011;45950;45.208;20.374;2024-01-11T07:37:28;72.20;;;28.27;;
60076;SDS011;45950;45.208;20.374;2024-01-11T07:39:55;69.67;;;27.27;;
60076;SDS011;45950;45.208;20.374;2024-01-11T07:42:21;76.57;;;27.13;;
60076;SDS011;45950;45.208;20.374;2024-01-11T07:44:48;87.77;;;30.57;;
60076;SDS011;45950;45.208;20.374;2024-01-11T07:47:15;98.57;;;32.23;;
60076;SDS011;45950;45.208;20.374;2024-01-11T07:49:42;91.57;;;33.87;;
60076;SDS011;45950;45.208;20.374;2024-01-11T07:57:34;82.63;;;30.43;;
60076;SDS011;45950;45.208;20.374;2024-01-11T08:00:01;88.37;;;34.23;;
60076;SDS011;45950;45.208;20.374;2024-01-11T08:02:28;81.97;;;31.97;;
60076;SDS011;45950;45.208;20.374;2024-01-11T08:04:55;101.20;;;33.53;;
60076;SDS011;45950;45.208;20.374;2024-01-11T08:07:22;81.53;;;31.83;;
60076;SDS011;45950;45.208;20.374;2024-01-11T08:09:48;103.53;;;30.70;;
60076;SDS011;45950;45.208;20.374;2024-01-11T08:12:15;98.07;;;35.77;;
60076;SDS011;45950;45.208;20.374;2024-01-11T08:14:43;73.80;;;26.57;;
60076;SDS011;45950;45.208;20.374;2024-01-11T08:17:11;94.83;;;32.63;;
60076;SDS011;45950;45.208;20.374;2024-01-11T08:19:38;79.67;;;29.67;;
60076;SDS011;45950;45.208;20.374;2024-01-11T08:22:05;109.33;;;37.30;;
60076;SDS011;45950;45.208;20.374;2024-01-11T08:24:32;103.27;;;33.33;;
60076;SDS011;45950;45.208;20.374;2024-01-11T08:26:59;106.47;;;34.60;;
60076;SDS011;45950;45.208;20.374;2024-01-11T08:29:26;80.30;;;31.97;;
60076;SDS011;45950;45.208;20.374;2024-01-11T08:31:54;87.43;;;31.13;;
60076;SDS011;45950;45.208;20.374;2024-01-11T08:34:21;75.63;;;30.63;;
60076;SDS011;45950;45.208;20.374;2024-01-11T08:36:48;98.17;;;34.87;;
60076;SDS011;45950;45.208;20.374;2024-01-11T08:39:14;86.53;;;30.40;;
60076;SDS011;45950;45.208;20.374;2024-01-11T08:41:41;111.37;;;41.37;;
60076;SDS011;45950;45.208;20.374;2024-01-11T08:47:12;153.30;;;46.57;;
60076;SDS011;45950;45.208;20.374;2024-01-11T08:49:38;148.53;;;57.83;;
60076;SDS011;45950;45.208;20.374;2024-01-11T08:52:05;141.97;;;42.03;;
60076;SDS011;45950;45.208;20.374;2024-01-11T08:54:32;186.40;;;59.63;;
60076;SDS011;45950;45.208;20.374;2024-01-11T08:56:59;137.43;;;51.73;;
60076;SDS011;45950;45.208;20.374;2024-01-11T08:59:26;144.17;;;54.53;;
60076;SDS011;45950;45.208;20.374;2024-01-11T09:01:53;106.67;;;39.63;;
60076;SDS011;45950;45.208;20.374;2024-01-11T09:04:21;105.83;;;40.90;;
60076;SDS011;45950;45.208;20.374;2024-01-11T09:06:48;114.87;;;44.03;;
60076;SDS011;45950;45.208;20.374;2024-01-11T09:09:14;115.87;;;40.07;;
60076;SDS011;45950;45.208;20.374;2024-01-11T09:11:42;121.27;;;44.80;;
60076;SDS011;45950;45.208;20.374;2024-01-11T09:14:08;114.97;;;41.20;;
60076;SDS011;45950;45.208;20.374;2024-01-11T09:16:36;111.40;;;38.87;;
60076;SDS011;45950;45.208;20.374;2024-01-11T09:19:04;103.17;;;39.27;;
60076;SDS011;45950;45.208;20.374;2024-01-11T09:21:32;161.27;;;55.30;;
60076;SDS011;45950;45.208;20.374;2024-01-11T09:23:59;104.93;;;38.63;;
60076;SDS011;45950;45.208;20.374;2024-01-11T09:26:26;155.40;;;52.07;;
60076;SDS011;45950;45.208;20.374;2024-01-11T09:28:52;123.30;;;47.10;;
60076;SDS011;45950;45.208;20.374;2024-01-11T09:31:19;174.47;;;63.30;;
60076;SDS011;45950;45.208;20.374;2024-01-11T09:33:46;127.40;;;47.77;;
60076;SDS011;45950;45.208;20.374;2024-01-11T09:36:13;141.10;;;55.00;;
60076;SDS011;45950;45.208;20.374;2024-01-11T09:38:41;156.23;;;59.43;;
60076;SDS011;45950;45.208;20.374;2024-01-11T09:41:15;150.10;;;57.17;;
60076;SDS011;45950;45.208;20.374;2024-01-11T09:43:42;139.15;;;53.53;;
60076;SDS011;45950;45.208;20.374;2024-01-11T09:46:09;154.10;;;57.33;;
60076;SDS011;45950;45.208;20.374;2024-01-11T09:48:43;145.57;;;55.97;;
60076;SDS011;45950;45.208;20.374;2024-01-11T09:51:13;157.47;;;58.50;;
60076;SDS011;45950;45.208;20.374;2024-01-11T09:53:40;162.13;;;59.73;;
60076;SDS011;45950;45.208;20.374;2024-01-11T09:56:18;183.63;;;74.10;;
60076;SDS011;45950;45.208;20.374;2024-01-11T09:58:46;160.13;;;60.70;;
60076;SDS011;45950;45.208;20.374;2024-01-11T10:01:15;165.63;;;63.93;;
60076;SDS011;45950;45.208;20.374;2024-01-11T10:03:47;155.07;;;61.27;;
60076;SDS011;45950;45.208;20.374;2024-01-11T10:06:14;148.50;;;59.57;;
60076;SDS011;45950;45.208;20.374;2024-01-11T10:08:41;157.17;;;57.80;;
60076;SDS011;45950;45.208;20.374;2024-01-11T10:11:08;167.90;;;62.20;;
60076;SDS011;45950;45.208;20.374;2024-01-11T10:13:36;160.40;;;64.03;;
60076;SDS011;45950;45.208;20.374;2024-01-11T10:16:07;172.00;;;65.50;;
60076;SDS011;45950;45.208;20.374;2024-01-11T10:18:34;189.23;;;70.70;;
60076;SDS011;45950;45.208;20.374;2024-01-11T10:21:01;211.53;;;79.70;;
60076;SDS011;45950;45.208;20.374;2024-01-11T10:23:28;183.00;;;69.73;;
60076;SDS011;45950;45.208;20.374;2024-01-11T10:25:55;203.13;;;72.17;;
60076;SDS011;45950;45.208;20.374;2024-01-11T10:28:22;214.93;;;85.97;;
60076;SDS011;45950;45.208;20.374;2024-01-11T10:30:51;222.00;;;85.33;;
60076;SDS011;45950;45.208;20.374;2024-01-11T10:33:19;208.27;;;75.80;;
60076;SDS011;45950;45.208;20.374;2024-01-11T10:35:46;258.87;;;95.87;;
60076;SDS011;45950;45.208;20.374;2024-01-11T10:38:14;194.37;;;74.17;;
60076;SDS011;45950;45.208;20.374;2024-01-11T10:40:40;184.50;;;74.23;;
60076;SDS011;45950;45.208;20.374;2024-01-11T10:43:07;188.67;;;67.90;;
60076;SDS011;45950;45.208;20.374;2024-01-11T10:45:36;161.33;;;57.70;;
60076;SDS011;45950;45.208;20.374;2024-01-11T10:48:06;192.27;;;69.80;;
60076;SDS011;45950;45.208;20.374;2024-01-11T10:50:34;231.33;;;84.30;;
60076;SDS011;45950;45.208;20.374;2024-01-11T10:53:02;278.00;;;90.90;;
60076;SDS011;45950;45.208;20.374;2024-01-11T10:55:30;234.50;;;94.03;;
60076;SDS011;45950;45.208;20.374;2024-01-11T10:57:57;202.33;;;72.17;;
60076;SDS011;45950;45.208;20.374;2024-01-11T11:00:24;192.73;;;72.80;;
60076;SDS011;45950;45.208;20.374;2024-01-11T11:02:51;229.73;;;77.53;;
60076;SDS011;45950;45.208;20.374;2024-01-11T11:05:19;187.10;;;67.60;;
60076;SDS011;45950;45.208;20.374;2024-01-11T11:07:47;182.47;;;70.47;;
60076;SDS011;45950;45.208;20.374;2024-01-11T11:10:14;202.50;;;68.17;;
60076;SDS011;45950;45.208;20.374;2024-01-11T11:12:42;236.53;;;75.33;;
60076;SDS011;45950;45.208;20.374;2024-01-11T11:15:09;197.50;;;74.13;;
60076;SDS011;45950;45.208;20.374;2024-01-11T11:17:38;197.70;;;70.30;;
60076;SDS011;45950;45.208;20.374;2024-01-11T11:20:05;191.57;;;72.70;;
60076;SDS011;45950;45.208;20.374;2024-01-11T11:22:34;193.67;;;74.23;;
60076;SDS011;45950;45.208;20.374;2024-01-11T11:25:04;307.57;;;110.20;;
60076;SDS011;45950;45.208;20.374;2024-01-11T11:27:34;348.40;;;133.17;;
60076;SDS011;45950;45.208;20.374;2024-01-11T11:30:01;269.40;;;100.17;;
60076;SDS011;45950;45.208;20.374;2024-01-11T11:32:38;315.43;;;117.40;;
60076;SDS011;45950;45.208;20.374;2024-01-11T11:35:06;288.97;;;105.17;;
60076;SDS011;45950;45.208;20.374;2024-01-11T11:37:35;307.70;;;110.80;;
60076;SDS011;45950;45.208;20.374;2024-01-11T11:40:04;480.13;;;183.90;;
60076;SDS011;45950;45.208;20.374;2024-01-11T11:42:31;263.47;;;95.80;;
60076;SDS011;45950;45.208;20.374;2024-01-11T11:44:57;239.67;;;92.63;;
60076;SDS011;45950;45.208;20.374;2024-01-11T11:47:24;193.67;;;74.63;;
60076;SDS011;45950;45.208;20.374;2024-01-11T11:50:07;210.90;;;76.30;;
60076;SDS011;45950;45.208;20.374;2024-01-11T11:52:36;186.10;;;69.93;;
60076;SDS011;45950;45.208;20.374;2024-01-11T11:55:03;170.07;;;67.23;;
60076;SDS011;45950;45.208;20.374;2024-01-11T11:57:31;194.40;;;71.43;;
60076;SDS011;45950;45.208;20.374;2024-01-11T11:59:58;176.17;;;69.40;;
60076;SDS011;45950;45.208;20.374;2024-01-11T12:02:25;159.47;;;63.90;;
60076;SDS011;45950;45.208;20.374;2024-01-11T12:04:52;175.27;;;64.13;;
60076;SDS011;45950;45.208;20.374;2024-01-11T12:07:19;152.30;;;57.50;;
60076;SDS011;45950;45.208;20.374;2024-01-11T12:09:47;151.37;;;57.17;;
60076;SDS011;45950;45.208;20.374;2024-01-11T12:12:14;157.57;;;60.37;;
60076;SDS011;45950;45.208;20.374;2024-01-11T12:14:42;153.27;;;61.73;;
60076;SDS011;45950;45.208;20.374;2024-01-11T12:17:09;218.60;;;63.67;;
60076;SDS011;45950;45.208;20.374;2024-01-11T12:19:43;165.00;;;61.27;;
60076;SDS011;45950;45.208;20.374;2024-01-11T12:22:09;173.63;;;62.55;;
60076;SDS011;45950;45.208;20.374;2024-01-11T12:24:36;142.77;;;53.03;;
60076;SDS011;45950;45.208;20.374;2024-01-11T12:27:05;160.47;;;59.97;;
60076;SDS011;45950;45.208;20.374;2024-01-11T12:29:31;160.93;;;61.57;;
60076;SDS011;45950;45.208;20.374;2024-01-11T12:31:58;156.00;;;61.00;;
60076;SDS011;45950;45.208;20.374;2024-01-11T12:34:25;154.17;;;59.07;;
60076;SDS011;45950;45.208;20.374;2024-01-11T12:36:52;154.87;;;61.73;;
60076;SDS011;45950;45.208;20.374;2024-01-11T12:39:20;148.73;;;58.57;;
60076;SDS011;45950;45.208;20.374;2024-01-11T12:41:48;142.57;;;54.17;;
60076;SDS011;45950;45.208;20.374;2024-01-11T12:44:16;167.17;;;63.80;;
60076;SDS011;45950;45.208;20.374;2024-01-11T12:46:43;155.13;;;58.23;;
60076;SDS011;45950;45.208;20.374;2024-01-11T12:49:10;156.07;;;57.33;;
60076;SDS011;45950;45.208;20.374;2024-01-11T12:51:36;169.77;;;61.87;;
60076;SDS011;45950;45.208;20.374;2024-01-11T12:54:05;264.90;;;94.50;;
60076;SDS011;45950;45.208;20.374;2024-01-11T12:56:36;182.03;;;70.97;;
60076;SDS011;45950;45.208;20.374;2024-01-11T12:59:07;168.50;;;63.53;;
60076;SDS011;45950;45.208;20.374;2024-01-11T13:01:35;160.47;;;61.20;;
60076;SDS011;45950;45.208;20.374;2024-01-11T13:04:01;188.30;;;74.20;;
60076;SDS011;45950;45.208;20.374;2024-01-11T13:06:29;222.57;;;84.47;;
60076;SDS011;45950;45.208;20.374;2024-01-11T13:08:56;192.13;;;72.87;;
60076;SDS011;45950;45.208;20.374;2024-01-11T13:11:23;203.70;;;76.57;;
60076;SDS011;45950;45.208;20.374;2024-01-11T13:13:50;164.07;;;62.57;;
60076;SDS011;45950;45.208;20.374;2024-01-11T13:16:16;182.27;;;70.63;;
60076;SDS011;45950;45.208;20.374;2024-01-11T13:18:45;185.60;;;68.77;;
60076;SDS011;45950;45.208;20.374;2024-01-11T13:21:22;186.03;;;72.50;;
60076;SDS011;45950;45.208;20.374;2024-01-11T13:23:48;187.10;;;63.80;;
60076;SDS011;45950;45.208;20.374;2024-01-11T13:26:15;224.13;;;87.00;;
60076;SDS011;45950;45.208;20.374;2024-01-11T13:28:44;199.27;;;65.67;;
60076;SDS011;45950;45.208;20.374;2024-01-11T13:31:10;184.47;;;61.70;;
60076;SDS011;45950;45.208;20.374;2024-01-11T13:33:37;169.07;;;58.87;;
60076;SDS011;45950;45.208;20.374;2024-01-11T13:36:06;159.73;;;55.97;;
60076;SDS011;45950;45.208;20.374;2024-01-11T13:38:34;166.20;;;62.97;;
60076;SDS011;45950;45.208;20.374;2024-01-11T13:41:01;180.93;;;62.67;;
60076;SDS011;45950;45.208;20.374;2024-01-11T13:43:28;166.97;;;58.53;;
60076;SDS011;45950;45.208;20.374;2024-01-11T13:45:54;177.20;;;61.57;;
60076;SDS011;45950;45.208;20.374;2024-01-11T13:48:21;209.30;;;60.03;;
60076;SDS011;45950;45.208;20.374;2024-01-11T13:50:48;162.37;;;57.97;;
60076;SDS011;45950;45.208;20.374;2024-01-11T13:53:16;172.70;;;59.83;;
60076;SDS011;45950;45.208;20.374;2024-01-11T13:55:42;169.07;;;60.33;;
60076;SDS011;45950;45.208;20.374;2024-01-11T13:58:09;148.00;;;56.40;;
60076;SDS011;45950;45.208;20.374;2024-01-11T14:00:37;174.97;;;60.70;;
60076;SDS011;45950;45.208;20.374;2024-01-11T14:03:04;178.23;;;68.20;;
60076;SDS011;45950;45.208;20.374;2024-01-11T14:05:30;191.27;;;73.97;;
60076;SDS011;45950;45.208;20.374;2024-01-11T14:07:57;188.67;;;69.07;;
60076;SDS011;45950;45.208;20.374;2024-01-11T14:10:25;161.83;;;60.77;;
60076;SDS011;45950;45.208;20.374;2024-01-11T14:12:52;190.50;;;69.20;;
60076;SDS011;45950;45.208;20.374;2024-01-11T14:15:19;151.53;;;55.10;;
60076;SDS011;45950;45.208;20.374;2024-01-11T14:17:46;151.47;;;54.47;;
60076;SDS011;45950;45.208;20.374;2024-01-11T14:20:13;167.97;;;60.40;;
60076;SDS011;45950;45.208;20.374;2024-01-11T14:22:39;185.60;;;61.73;;
60076;SDS011;45950;45.208;20.374;2024-01-11T14:25:07;150.10;;;53.23;;
60076;SDS011;45950;45.208;20.374;2024-01-11T14:27:35;177.93;;;61.70;;
60076;SDS011;45950;45.208;20.374;2024-01-11T14:30:02;163.53;;;56.23;;
60076;SDS011;45950;45.208;20.374;2024-01-11T14:32:31;206.57;;;60.63;;